Terminal Aerodrome Forecast
Issued by NWS Mt. Holly, NJ

Home | Current Version | Previous Version | Text Only | Print | Product List | Glossary On
Versions: 1 2 3 4 5 6 7 8 9 10 11 12 13 14 15 16 17 18 19 20
000
FTUS41 KPHI 282100 AAA
TAFACY
TAF AMD
KACY 282104Z 2821/2918 26014G22KT P6SM SCT050 BKN100
     FM290000 29010KT P6SM SCT150
     FM290600 30006KT P6SM SCT200
     FM291500 31008KT P6SM BKN100=

USA.gov is the U.S. government's official web portal to all federal, state and local government web resources and services.